Time;durP1;ratioP1;P1;durP2;ratioP2;P2;SDS_P1;SDS_P2;PMS_P1;PMS_P2;Temp;Humidity;BMP_temperature;BMP_pressure;BME280_temperature;BME280_humidity;BME280_pressure;Samples;Min_cycle;Max_cycle;Signal;HPM_P1;HPM_P2
2024/03/19 00:00:37;;;;;;;;;28.33;24.00;;;;;13.40;67.89;101557.63;1992547;28;3591269;-77
2024/03/19 00:01:48;;;;;;;;;25.33;24.00;;;;;13.42;68.17;101565.50;1982386;28;3585660;-77
2024/03/19 00:03:00;;;;;;;;;29.40;23.40;;;;;13.40;68.11;101565.56;2014948;28;3587705;-77
2024/03/19 00:04:12;;;;;;;;;24.40;22.40;;;;;13.35;68.00;101559.56;2005487;28;3583572;-77
2024/03/19 00:05:25;;;;;;;;;22.60;21.80;;;;;13.32;68.42;101549.97;2011815;28;3567946;-77
2024/03/19 00:06:35;;;;;;;;;25.50;25.00;;;;;13.35;68.41;101559.56;1982830;28;2849189;-77
2024/03/19 00:07:47;;;;;;;;;20.80;20.20;;;;;13.31;68.37;101556.13;2001186;28;3561680;-77
2024/03/19 00:08:59;;;;;;;;;26.33;23.00;;;;;13.34;68.28;101565.75;2027102;28;3586753;-77
2024/03/19 00:10:11;;;;;;;;;24.60;23.40;;;;;13.33;68.44;101561.38;2021922;28;3579363;-77
2024/03/19 00:11:23;;;;;;;;;29.80;24.60;;;;;13.26;68.39;101556.28;1993186;28;3603344;-77
2024/03/19 00:12:35;;;;;;;;;27.00;25.33;;;;;13.33;68.80;101561.38;1987004;28;3590909;-77
2024/03/19 00:13:47;;;;;;;;;24.67;24.00;;;;;13.34;68.50;101571.03;2023718;28;3581573;-77
2024/03/19 00:14:59;;;;;;;;;26.00;23.60;;;;;13.34;68.69;101571.03;2032008;28;3585647;-77
2024/03/19 00:16:10;;;;;;;;;28.50;24.00;;;;;13.30;68.47;101564.13;1994310;28;2852316;-77
2024/03/19 00:17:22;;;;;;;;;26.00;23.20;;;;;13.30;68.44;101564.97;1995726;28;3583544;-77
2024/03/19 00:18:34;;;;;;;;;25.80;20.40;;;;;13.28;68.58;101561.53;2004209;28;3576277;-76
2024/03/19 00:19:46;;;;;;;;;28.67;23.33;;;;;13.31;68.48;101563.22;1999743;28;3590872;-77
2024/03/19 00:20:58;;;;;;;;;25.80;23.60;;;;;13.21;68.65;101552.09;2002523;28;3585643;-77
2024/03/19 00:22:10;;;;;;;;;22.80;22.20;;;;;13.27;68.40;101559.78;2003966;28;3569991;-77
2024/03/19 00:23:21;;;;;;;;;24.00;23.67;;;;;13.21;68.68;101555.56;2012878;28;3591897;-77
2024/03/19 00:24:33;;;;;;;;;24.00;22.00;;;;;13.24;68.57;101560.75;2021778;28;3581521;-77
2024/03/19 00:25:45;;;;;;;;;24.67;23.67;;;;;13.23;68.68;101558.16;2011718;28;3574206;-77
2024/03/19 00:26:57;;;;;;;;;28.40;24.60;;;;;13.20;68.32;101553.84;2019832;28;3596053;-77
2024/03/19 00:28:09;;;;;;;;;31.00;27.40;;;;;13.21;68.33;101563.47;1997863;28;3592940;-77
2024/03/19 00:29:21;;;;;;;;;28.20;25.40;;;;;13.23;68.53;101571.38;1995785;28;3584593;-77
2024/03/19 00:30:33;;;;;;;;;26.00;24.00;;;;;13.20;68.41;101564.41;1990273;28;3580428;-77
2024/03/19 00:31:45;;;;;;;;;21.20;21.00;;;;;13.22;68.44;101567.84;2023370;28;3573709;-77
2024/03/19 00:32:57;;;;;;;;;25.80;22.20;;;;;13.10;68.52;101552.41;2019454;28;3578332;-77
2024/03/19 00:34:09;;;;;;;;;21.33;19.67;;;;;13.15;68.89;101559.28;2018746;28;3572143;-77
2024/03/19 00:35:21;;;;;;;;;23.80;21.80;;;;;13.18;68.56;101563.59;2028998;28;3572117;-77
2024/03/19 00:36:32;;;;;;;;;24.00;23.33;;;;;13.15;68.79;101566.31;2006850;28;3560642;-77
2024/03/19 00:37:44;;;;;;;;;25.67;23.33;;;;;13.18;68.45;101562.72;2029076;28;3592935;-77
2024/03/19 00:38:56;;;;;;;;;25.33;21.33;;;;;13.13;68.96;101561.09;1993877;28;3572143;-77
2024/03/19 00:40:12;;;;;;;;;24.00;19.33;;;;;13.16;68.78;101565.44;2022239;28;3570084;-77
2024/03/19 00:41:23;;;;;;;;;20.00;20.00;;;;;13.12;68.90;101563.78;2008904;28;2830546;-77
2024/03/19 00:42:34;;;;;;;;;18.00;15.33;;;;;13.11;68.94;101560.25;2024082;28;3549192;-77
2024/03/19 00:43:46;;;;;;;;;21.67;19.33;;;;;13.11;68.86;101560.25;2029760;28;3562844;-77
2024/03/19 00:44:58;;;;;;;;;21.60;19.60;;;;;13.11;68.62;101565.53;2027650;28;3560621;-77
2024/03/19 00:46:10;;;;;;;;;27.33;24.00;;;;;13.03;68.76;101552.59;2022517;28;3591888;-77
2024/03/19 00:47:22;;;;;;;;;25.67;23.00;;;;;13.08;68.68;101560.38;2011549;28;3579430;-77
2024/03/19 00:48:34;;;;;;;;;20.67;20.67;;;;;13.02;68.91;101556.13;2006464;28;3569019;-77
2024/03/19 00:49:46;;;;;;;;;21.60;19.40;;;;;13.08;68.86;101564.78;2009201;28;3559601;-77
2024/03/19 00:50:58;;;;;;;;;22.20;21.40;;;;;13.02;69.14;101556.13;2027187;28;3573126;-77
2024/03/19 00:52:10;;;;;;;;;19.33;15.33;;;;;13.02;68.78;101552.63;2031165;28;3541924;-78
2024/03/19 00:53:21;;;;;;;;;28.67;23.00;;;;;13.05;68.92;101561.31;2020290;28;3593993;-77
2024/03/19 00:54:33;;;;;;;;;26.33;23.67;;;;;13.02;68.87;101563.19;1999437;28;3576297;-77
2024/03/19 00:55:45;;;;;;;;;22.33;18.67;;;;;12.97;68.86;101550.13;2028145;28;3565923;-76
2024/03/19 00:56:56;;;;;;;;;20.50;18.50;;;;;13.02;68.82;101563.19;2026343;28;2838812;-77
2024/03/19 00:58:08;;;;;;;;;17.40;17.40;;;;;13.02;68.84;101561.41;2002156;28;3566927;-77
2024/03/19 00:59:20;;;;;;;;;24.67;22.67;;;;;13.02;69.07;101561.41;2025357;28;3564839;-76
2024/03/19 01:00:32;;;;;;;;;24.33;22.67;;;;;13.03;68.93;101568.44;2032808;28;3590867;-76
2024/03/19 01:01:45;;;;;;;;;28.67;26.00;;;;;13.01;69.05;101559.66;2032014;28;3602392;-76
2024/03/19 01:02:56;;;;;;;;;31.00;26.67;;;;;12.95;68.91;101554.59;1984639;28;3596112;-77
2024/03/19 01:04:08;;;;;;;;;23.67;17.33;;;;;12.98;69.13;101558.91;1989254;28;3571082;-76
2024/03/19 01:05:20;;;;;;;;;25.00;21.33;;;;;12.99;68.78;101564.13;2025335;28;3561729;-77
2024/03/19 01:06:32;;;;;;;;;30.00;23.67;;;;;12.96;69.00;101556.34;2031229;28;3597126;-76
2024/03/19 01:07:44;;;;;;;;;22.40;21.40;;;;;12.95;69.00;101559.88;2008800;28;3571030;-76
2024/03/19 01:08:56;;;;;;;;;23.80;19.80;;;;;12.90;68.87;101546.81;2033433;28;3573144;-76
2024/03/19 01:10:08;;;;;;;;;21.67;21.67;;;;;12.98;68.82;101564.19;2024904;28;3568995;-77
2024/03/19 01:11:19;;;;;;;;;26.00;23.00;;;;;12.91;69.17;101559.09;2002085;28;2846182;-77
2024/03/19 01:12:31;;;;;;;;;22.40;18.60;;;;;12.93;68.89;101559.94;1997567;28;3563733;-77
2024/03/19 01:13:44;;;;;;;;;24.00;22.67;;;;;12.93;69.05;101562.56;2048617;28;2836703;-77
2024/03/19 01:14:56;;;;;;;;;32.67;27.00;;;;;12.95;68.96;101565.16;2009513;28;3597122;-77
2024/03/19 01:16:08;;;;;;;;;27.40;24.40;;;;;12.89;69.28;101566.19;1998190;28;3598147;-77
2024/03/19 01:17:20;;;;;;;;;24.33;23.67;;;;;12.85;69.19;101550.50;1993438;28;3566918;-77
2024/03/19 01:18:32;;;;;;;;;30.00;23.00;;;;;12.88;69.08;101555.69;2011521;28;3588769;-77
2024/03/19 01:19:43;;;;;;;;;25.67;21.00;;;;;12.88;69.23;101553.06;2012302;28;3573141;-77
2024/03/19 01:20:55;;;;;;;;;26.00;23.20;;;;;12.86;69.00;101554.88;2028901;28;3591870;-77
2024/03/19 01:22:09;;;;;;;;;22.00;20.67;;;;;12.82;69.09;101547.03;2000173;28;3575279;-77
2024/03/19 01:23:20;;;;;;;;;30.00;25.00;;;;;12.88;69.19;101558.31;2002169;28;2852352;-77
2024/03/19 01:24:33;;;;;;;;;26.33;24.67;;;;;12.85;69.22;101556.63;1980813;28;3597066;-77
2024/03/19 01:25:43;;;;;;;;;24.00;24.00;;;;;12.87;69.06;101559.22;2003706;28;2850258;-77
2024/03/19 01:26:55;;;;;;;;;28.00;24.40;;;;;12.86;69.10;101557.50;2002459;28;3586690;-77
2024/03/19 01:28:10;;;;;;;;;27.33;27.33;;;;;12.82;69.22;101548.81;2008150;28;3591906;-76
2024/03/19 01:29:20;;;;;;;;;28.00;27.00;;;;;12.85;69.45;101553.13;2002199;28;2847133;-77
2024/03/19 01:30:32;;;;;;;;;25.60;24.80;;;;;12.84;69.33;101557.53;1993503;28;3594006;-77
2024/03/19 01:31:43;;;;;;;;;3.00;3.00;;;;;12.79;69.36;101547.13;2028324;28;2737762;-77
2024/03/19 01:32:54;;;;;;;;;30.50;28.50;;;;;12.81;69.38;101558.53;1980962;28;2841917;-77
2024/03/19 01:34:06;;;;;;;;;32.67;28.00;;;;;12.82;69.32;101556.72;1999481;28;3590835;-77
2024/03/19 01:35:18;;;;;;;;;30.40;26.20;;;;;12.81;69.11;101553.25;2005852;28;3597082;-77
2024/03/19 01:36:29;;;;;;;;;30.00;28.00;;;;;12.80;69.37;101551.50;1983630;28;2854420;-77
2024/03/19 01:37:41;;;;;;;;;32.20;29.00;;;;;12.80;69.51;101556.78;2004656;28;3606430;-77
2024/03/19 01:38:52;;;;;;;;;24.50;19.00;;;;;12.73;69.43;101543.81;2006756;28;2838819;-77
2024/03/19 01:40:05;;;;;;;;;28.40;25.80;;;;;12.77;69.28;101546.31;2012747;28;3587692;-77
2024/03/19 01:41:17;;;;;;;;;31.50;29.00;;;;;12.80;69.87;101548.88;2004918;28;2858643;-77
2024/03/19 01:42:28;;;;;;;;;30.50;28.00;;;;;12.73;69.51;101543.81;1979757;28;2850265;-77
2024/03/19 01:43:40;;;;;;;;;30.00;25.60;;;;;12.79;69.45;101551.56;2001156;28;3597091;-76
2024/03/19 01:45:07;;;;;;;;;28.20;25.80;;;;;12.76;69.43;101552.50;1997814;28;3594987;-77
2024/03/19 01:46:28;;;;;;;;;27.50;24.50;;;;;12.77;69.53;101550.72;1978092;28;2850297;-77
2024/03/19 01:47:41;;;;;;;;;26.67;25.00;;;;;12.74;69.84;101542.91;1984347;28;3589822;-76
2024/03/19 01:48:54;;;;;;;;;30.67;27.67;;;;;12.70;69.76;101542.13;1991969;28;3604396;-77
2024/03/19 01:50:08;;;;;;;;;29.00;23.50;;;;;12.71;69.52;101535.94;1985526;28;2855870;-77
2024/03/19 01:51:21;;;;;;;;;30.00;26.00;;;;;12.73;69.63;101541.16;1985040;28;3595535;-77
2024/03/19 01:52:54;;;;;;;;;29.00;27.00;;;;;12.71;69.54;101541.22;1979652;28;2847168;-77
2024/03/19 01:54:05;;;;;;;;;23.50;23.50;;;;;12.74;69.82;101540.28;1984391;28;2850293;-77
2024/03/19 01:55:17;;;;;;;;;30.00;26.00;;;;;12.71;69.98;101536.81;1983779;28;2860729;-76
2024/03/19 01:56:30;;;;;;;;;26.50;24.50;;;;;12.71;69.79;101543.88;1986361;28;2846130;-77
2024/03/19 01:57:44;;;;;;;;;29.33;24.67;;;;;12.70;69.80;101548.28;1991677;28;3597094;-76
2024/03/19 01:58:58;;;;;;;;;27.67;25.33;;;;;12.68;69.82;101538.66;1977260;28;3602681;-77
2024/03/19 02:00:09;;;;;;;;;28.00;24.50;;;;;12.70;69.62;101534.22;2006770;28;2858613;-77
2024/03/19 02:01:21;;;;;;;;;27.00;23.00;;;;;12.66;69.65;101533.44;1993813;28;2854785;-77
2024/03/19 02:02:34;;;;;;;;;30.50;24.50;;;;;12.64;69.58;101530.00;2005515;28;2856492;-77
2024/03/19 02:03:46;;;;;;;;;21.33;21.33;;;;;12.64;69.67;101524.72;1981010;28;3571021;-77
2024/03/19 02:04:59;;;;;;;;;29.00;27.20;;;;;12.61;69.75;101532.72;2012129;28;3582547;-77
2024/03/19 02:06:11;;;;;;;;;29.00;24.50;;;;;12.62;69.68;101528.31;1995010;28;2844055;-77
2024/03/19 02:07:22;;;;;;;;;27.00;26.00;;;;;12.60;69.67;101531.84;1990970;28;2858593;-77
2024/03/19 02:08:34;;;;;;;;;29.60;26.20;;;;;12.64;69.59;101539.69;2013872;28;3600222;-77
2024/03/19 02:09:45;;;;;;;;;28.60;25.20;;;;;12.62;69.67;101534.44;1988833;28;3593975;-77
2024/03/19 02:10:57;;;;;;;;;27.00;23.20;;;;;12.60;69.71;101533.63;1997939;28;3581471;-77
2024/03/19 02:12:09;;;;;;;;;33.00;27.00;;;;;12.56;69.79;101527.56;1995523;28;3598566;-77
2024/03/19 02:13:21;;;;;;;;;28.67;27.33;;;;;12.55;69.76;101525.84;1997365;28;3589833;-78
2024/03/19 02:14:34;;;;;;;;;30.20;28.00;;;;;12.60;70.17;101531.84;2005088;28;3594995;-77
2024/03/19 02:15:46;;;;;;;;;28.33;25.33;;;;;12.59;69.88;101537.19;1997105;28;3594022;-77
2024/03/19 02:16:56;;;;;;;;;27.50;24.00;;;;;12.53;69.70;101527.66;1993595;28;2851669;-77
2024/03/19 02:18:08;;;;;;;;;31.60;27.00;;;;;12.56;69.81;101535.50;1996305;28;3589167;-77
2024/03/19 02:19:23;;;;;;;;;26.00;25.33;;;;;12.55;69.76;101536.38;2016182;28;3601313;-76
2024/03/19 02:20:33;;;;;;;;;24.50;22.50;;;;;12.54;69.90;101528.53;1992470;28;2850269;-77
2024/03/19 02:21:45;;;;;;;;;27.00;25.00;;;;;12.55;69.93;101533.75;1991226;28;3575722;-77
2024/03/19 02:22:57;;;;;;;;;23.80;23.00;;;;;12.52;69.89;101533.81;2021436;28;3572099;-77
2024/03/19 02:24:09;;;;;;;;;28.00;22.20;;;;;12.53;69.83;101532.06;1997236;28;3598623;-77
2024/03/19 02:25:21;;;;;;;;;23.00;21.00;;;;;12.53;69.96;101537.34;2001459;28;3575241;-77
2024/03/19 02:26:33;;;;;;;;;29.00;26.00;;;;;12.56;69.91;101543.41;2025089;28;3588758;-77
2024/03/19 02:27:46;;;;;;;;;31.80;26.00;;;;;12.52;70.08;101544.38;1995759;28;3598106;-77
2024/03/19 02:28:57;;;;;;;;;25.50;23.50;;;;;12.53;69.63;101535.56;1984396;28;2853354;-77
2024/03/19 02:30:09;;;;;;;;;33.00;27.00;;;;;12.45;69.83;101527.88;1989110;28;2868995;-75
2024/03/19 02:31:22;;;;;;;;;34.00;30.00;;;;;12.47;69.71;101536.59;2009670;28;2875233;-76
2024/03/19 02:32:33;;;;;;;;;28.50;26.50;;;;;12.50;69.73;101538.28;1988253;28;2861675;-77
2024/03/19 02:33:45;;;;;;;;;27.67;24.67;;;;;12.49;69.91;101541.84;1998037;28;3588761;-77
2024/03/19 02:34:57;;;;;;;;;29.60;24.60;;;;;12.46;69.75;101534.88;2006519;28;3597073;-77
2024/03/19 02:36:09;;;;;;;;;31.60;26.20;;;;;12.48;69.82;101535.69;2022132;28;3602302;-77
2024/03/19 02:37:21;;;;;;;;;32.00;27.67;;;;;12.48;69.79;101534.84;2008942;28;3603380;-77
2024/03/19 02:38:33;;;;;;;;;26.60;24.00;;;;;12.45;69.93;101529.63;2018863;28;3579315;-77
2024/03/19 02:39:45;;;;;;;;;25.80;25.80;;;;;12.43;69.78;101526.19;2041760;28;3591854;-78
2024/03/19 02:40:56;;;;;;;;;29.67;28.00;;;;;12.45;69.78;101532.28;1993857;28;3592955;-77
2024/03/19 02:42:08;;;;;;;;;26.67;25.33;;;;;12.38;69.87;101519.28;1990762;28;3574281;-77
2024/03/19 02:43:20;;;;;;;;;28.40;26.00;;;;;12.41;69.84;101528.88;2025496;28;3580415;-76
2024/03/19 02:44:32;;;;;;;;;26.40;24.80;;;;;12.39;69.96;101533.34;2001235;28;3582476;-77
2024/03/19 02:45:44;;;;;;;;;27.33;23.33;;;;;12.41;69.75;101533.28;2001365;28;3583912;-77
2024/03/19 02:46:56;;;;;;;;;29.33;24.67;;;;;12.36;70.11;101523.72;2020932;28;3590885;-77
2024/03/19 02:48:08;;;;;;;;;29.60;27.60;;;;;12.35;69.87;101523.75;2012133;28;3603388;-77
2024/03/19 02:49:20;;;;;;;;;26.20;23.20;;;;;12.36;69.63;101525.50;2010999;28;3583533;-77
2024/03/19 02:50:32;;;;;;;;;21.67;18.33;;;;;12.31;70.05;101525.63;2007813;28;3575235;-77
2024/03/19 02:51:44;;;;;;;;;25.80;24.00;;;;;12.36;69.69;101529.00;2026745;28;3592889;-76
2024/03/19 02:52:56;;;;;;;;;24.33;24.00;;;;;12.33;69.90;101526.44;1985218;28;3586762;-77
2024/03/19 02:54:08;;;;;;;;;31.33;25.33;;;;;12.36;69.93;101536.03;2016693;28;3599193;-77
2024/03/19 02:55:19;;;;;;;;;22.60;21.40;;;;;12.27;69.96;101524.84;2004167;28;3583596;-77
2024/03/19 02:56:31;;;;;;;;;17.00;17.00;;;;;12.31;69.93;101530.91;2030896;28;3573160;-76
2024/03/19 02:57:44;;;;;;;;;27.00;24.20;;;;;12.27;69.90;101529.25;2022338;28;3582487;-76
2024/03/19 02:58:56;;;;;;;;;28.50;26.50;;;;;12.27;70.07;101529.25;1984057;28;2847088;-77
2024/03/19 03:00:09;;;;;;;;;24.33;23.67;;;;;12.29;70.02;101529.22;1986924;28;3568959;-77
2024/03/19 03:01:20;;;;;;;;;27.00;21.00;;;;;12.27;69.88;101526.63;2012551;28;3589847;-77
2024/03/19 03:02:32;;;;;;;;;26.40;23.40;;;;;12.24;70.08;101529.34;2036400;28;3586653;-77
2024/03/19 03:03:44;;;;;;;;;25.20;24.20;;;;;12.25;70.07;101531.06;1993328;28;2844090;-77
2024/03/19 03:04:55;;;;;;;;;25.50;25.00;;;;;12.26;70.06;101533.66;2000675;28;2849179;-77
2024/03/19 03:06:07;;;;;;;;;27.67;21.67;;;;;12.25;69.83;101523.16;2000102;28;3588797;-77
2024/03/19 03:07:18;;;;;;;;;27.20;25.00;;;;;12.24;70.12;101524.94;2018381;28;3596033;-77
2024/03/19 03:08:30;;;;;;;;;27.67;23.33;;;;;12.27;70.07;101530.09;1992486;28;3591937;-76
2024/03/19 03:09:42;;;;;;;;;22.80;21.80;;;;;12.24;69.77;101526.72;2024597;28;3573173;-77
2024/03/19 03:10:54;;;;;;;;;21.60;20.60;;;;;12.18;70.16;101516.31;2001179;28;3580381;-77
2024/03/19 03:12:06;;;;;;;;;23.67;22.33;;;;;12.20;69.88;101525.91;1994095;28;3587776;-77
2024/03/19 03:13:18;;;;;;;;;24.80;21.60;;;;;12.23;69.84;101535.50;2017578;28;3594013;-77
2024/03/19 03:14:30;;;;;;;;;24.00;22.33;;;;;12.22;70.08;101533.78;2025273;28;3582536;-77
2024/03/19 03:15:42;;;;;;;;;22.20;22.20;;;;;12.17;70.18;101526.03;2036948;28;3568979;-77
2024/03/19 03:16:54;;;;;;;;;23.67;22.00;;;;;12.19;70.14;101529.47;2023498;28;3578404;-77
2024/03/19 03:18:06;;;;;;;;;22.60;22.00;;;;;12.19;70.40;101533.88;2021908;28;3568942;-77
2024/03/19 03:19:17;;;;;;;;;26.00;22.00;;;;;12.18;70.25;101540.91;2018142;28;3593016;-77
2024/03/19 03:20:30;;;;;;;;;20.20;19.00;;;;;12.19;70.48;101539.13;2029656;28;3577304;-77
2024/03/19 03:21:41;;;;;;;;;25.33;21.33;;;;;12.18;70.29;101534.75;2015248;28;3579419;-77
2024/03/19 03:22:54;;;;;;;;;24.33;23.00;;;;;12.18;70.47;101533.00;2005916;28;3584064;-77
2024/03/19 03:24:06;;;;;;;;;24.67;21.00;;;;;12.15;70.27;101528.69;2027647;28;3576632;-77
2024/03/19 03:25:17;;;;;;;;;22.20;20.80;;;;;12.16;70.41;101532.19;2032569;28;3567894;-77
2024/03/19 03:26:29;;;;;;;;;20.60;20.60;;;;;12.11;70.39;101521.72;2034900;28;3573147;-77
2024/03/19 03:27:42;;;;;;;;;22.67;20.00;;;;;12.09;70.30;101518.28;2033008;28;3579438;-77
2024/03/19 03:28:54;;;;;;;;;22.67;20.00;;;;;12.10;70.24;101525.25;2014163;28;3570032;-77
2024/03/19 03:30:13;;;;;;;;;27.20;26.80;;;;;12.12;70.29;101531.34;2037095;28;3591851;-77
2024/03/19 03:31:23;;;;;;;;;20.50;20.50;;;;;12.10;70.37;101532.31;1993590;28;2828371;-77
2024/03/19 03:32:36;;;;;;;;;25.80;22.80;;;;;12.13;70.04;101535.75;2004540;28;3588773;-76
2024/03/19 03:33:48;;;;;;;;;25.33;23.33;;;;;12.15;70.32;101541.84;2006005;28;3575289;-77
2024/03/19 03:35:00;;;;;;;;;22.40;22.00;;;;;12.07;70.35;101532.41;2020582;28;3572099;-77
2024/03/19 03:36:12;;;;;;;;;22.33;20.33;;;;;12.06;70.45;101528.88;2019960;28;3572122;-77
2024/03/19 03:37:25;;;;;;;;;30.00;26.00;;;;;12.04;70.24;101530.72;2016785;28;2863795;-78
2024/03/19 03:38:37;;;;;;;;;22.33;20.00;;;;;12.09;70.27;101539.38;1983391;28;3550224;-77
2024/03/19 03:39:48;;;;;;;;;24.33;21.33;;;;;12.08;70.62;101542.88;2014533;28;3579438;-76
2024/03/19 03:41:07;;;;;;;;;25.80;20.00;;;;;12.07;70.36;101546.44;2024493;28;3583537;-76
2024/03/19 03:42:17;;;;;;;;;17.00;16.50;;;;;12.04;70.68;101538.63;1990851;28;2823182;-76
2024/03/19 03:43:29;;;;;;;;;24.67;23.67;;;;;12.05;70.60;101542.97;1993918;28;3582515;-77
2024/03/19 03:44:41;;;;;;;;;29.00;22.80;;;;;12.10;70.34;101541.06;2024299;28;3594995;-76
2024/03/19 03:45:53;;;;;;;;;18.33;17.67;;;;;12.09;70.69;101544.63;2011139;28;3570015;-76
2024/03/19 03:47:05;;;;;;;;;25.00;20.67;;;;;12.03;70.64;101539.50;2034024;28;3581485;-76
2024/03/19 03:48:17;;;;;;;;;22.67;22.00;;;;;12.11;70.60;101550.72;2033279;28;2829992;-76
2024/03/19 03:49:27;;;;;;;;;24.00;22.00;;;;;12.11;71.07;101542.81;2002598;28;2841925;-77
2024/03/19 03:50:40;;;;;;;;;22.33;21.00;;;;;12.09;70.75;101539.38;2022629;28;3573175;-77
2024/03/19 03:51:51;;;;;;;;;20.00;20.00;;;;;12.12;70.61;101539.25;2001647;28;3577387;-77
2024/03/19 03:53:03;;;;;;;;;22.40;20.00;;;;;12.16;70.88;101545.34;2018690;28;3577281;-77
2024/03/19 03:54:15;;;;;;;;;21.67;21.00;;;;;12.18;70.75;101546.19;2022944;28;3575296;-77
2024/03/19 03:55:27;;;;;;;;;23.60;21.00;;;;;12.14;70.74;101536.63;2036102;28;3581435;-77
2024/03/19 03:56:38;;;;;;;;;14.25;13.25;;;;;12.17;70.68;101539.19;2035528;28;1827473;-77
2024/03/19 03:57:52;;;;;;;;;25.67;22.33;;;;;12.14;70.68;101536.63;1985010;28;3598176;-77
2024/03/19 03:59:04;;;;;;;;;21.00;19.67;;;;;12.14;70.46;101536.63;1987291;28;3587739;-77
2024/03/19 04:00:17;;;;;;;;;20.67;17.67;;;;;12.13;70.50;101535.75;2014362;28;3568990;-77
2024/03/19 04:01:29;;;;;;;;;22.67;21.33;;;;;12.21;70.64;101545.22;2015274;28;3580841;-77
2024/03/19 04:02:42;;;;;;;;;21.67;21.33;;;;;12.14;70.51;101531.38;2031589;28;3585133;-77
2024/03/19 04:03:53;;;;;;;;;21.50;20.00;;;;;12.21;70.66;101545.22;2015893;28;2848178;-77
2024/03/19 04:05:07;;;;;;;;;22.60;21.40;;;;;12.17;70.67;101541.81;2006118;28;3584556;-77
2024/03/19 04:06:17;;;;;;;;;24.00;20.50;;;;;12.11;70.53;101531.41;2007441;28;2851283;-77
2024/03/19 04:07:29;;;;;;;;;22.67;22.67;;;;;12.15;70.61;101539.22;1989966;28;3553362;-77
2024/03/19 04:08:41;;;;;;;;;24.60;22.80;;;;;12.14;70.49;101536.63;2023026;28;3567964;-77
2024/03/19 04:09:53;;;;;;;;;30.67;27.00;;;;;12.19;70.44;101544.41;2027539;28;3603383;-77
2024/03/19 04:11:05;;;;;;;;;27.40;22.40;;;;;12.13;70.62;101535.75;2007412;28;3581458;-77
2024/03/19 04:12:17;;;;;;;;;25.67;20.00;;;;;12.18;70.67;101542.66;2022196;28;3584587;-77
2024/03/19 04:13:29;;;;;;;;;25.60;23.00;;;;;12.17;70.64;101540.97;2035316;28;3590828;-77
2024/03/19 04:14:41;;;;;;;;;24.40;24.20;;;;;12.20;70.76;101540.88;1997972;28;3590843;-77
2024/03/19 04:15:53;;;;;;;;;27.80;24.80;;;;;12.20;70.76;101546.16;2004599;28;3582512;-76
2024/03/19 04:17:05;;;;;;;;;33.80;29.00;;;;;12.23;70.75;101548.69;2024955;28;3604439;-77
2024/03/19 04:18:17;;;;;;;;;30.20;29.80;;;;;12.18;70.88;101538.28;1996650;28;3612689;-77
2024/03/19 04:19:29;;;;;;;;;36.00;28.80;;;;;12.22;70.66;101539.06;2002497;28;3621024;-77
2024/03/19 04:20:41;;;;;;;;;32.40;28.80;;;;;12.15;70.85;101528.69;1991870;28;3604370;-77
2024/03/19 04:21:53;;;;;;;;;34.33;31.00;;;;;12.21;70.57;101534.69;1980493;28;2875283;-76
2024/03/19 04:23:03;;;;;;;;;26.00;26.00;;;;;12.20;70.85;101539.09;2011015;28;2858558;-77
2024/03/19 04:24:15;;;;;;;;;37.00;29.60;;;;;12.14;70.92;101526.97;2003913;28;3609579;-77
2024/03/19 04:25:27;;;;;;;;;34.80;30.40;;;;;12.17;70.68;101531.28;1995607;28;3595082;-77
2024/03/19 04:26:39;;;;;;;;;38.60;29.80;;;;;12.19;70.98;101539.13;2004473;28;3606461;-77
2024/03/19 04:27:51;;;;;;;;;42.80;32.00;;;;;12.16;70.70;101526.91;2006565;28;3599170;-77
2024/03/19 04:29:04;;;;;;;;;36.20;30.80;;;;;12.18;70.62;101538.28;2011244;28;3595022;-78
2024/03/19 04:30:15;;;;;;;;;31.00;29.00;;;;;12.14;70.49;101534.00;1986229;28;2868952;-77
2024/03/19 04:31:27;;;;;;;;;30.00;26.00;;;;;12.19;70.79;101540.00;1991044;28;3601244;-77
2024/03/19 04:32:39;;;;;;;;;29.20;26.00;;;;;12.14;71.11;101531.38;2004657;28;3594987;-77
2024/03/19 04:33:51;;;;;;;;;33.20;29.60;;;;;12.11;70.70;101534.03;2006196;28;3602292;-77
2024/03/19 04:35:03;;;;;;;;;36.40;30.60;;;;;12.17;70.59;101539.19;2006049;28;3601237;-77
2024/03/19 04:36:15;;;;;;;;;35.60;29.80;;;;;12.13;70.30;101541.03;1992414;28;3610636;-77
2024/03/19 04:37:27;;;;;;;;;32.00;30.20;;;;;12.13;70.36;101543.66;2005631;28;3608513;-77
2024/03/19 04:38:39;;;;;;;;;34.33;29.67;;;;;12.11;70.64;101539.31;1990594;28;3602303;-77
2024/03/19 04:39:51;;;;;;;;;31.00;29.80;;;;;12.02;70.47;101529.88;2005934;28;3607530;-77
2024/03/19 04:41:03;;;;;;;;;31.80;29.40;;;;;12.05;70.80;101529.78;1999415;28;3610691;-77
2024/03/19 04:42:18;;;;;;;;;35.00;31.00;;;;;12.10;70.59;101541.06;1995040;28;3600187;-77
2024/03/19 04:43:28;;;;;;;;;35.50;30.00;;;;;12.01;70.53;101526.38;1985754;28;2864843;-77
2024/03/19 04:44:40;;;;;;;;;29.40;27.00;;;;;12.09;70.36;101535.84;1998908;28;3611653;-77
2024/03/19 04:45:52;;;;;;;;;36.00;29.67;;;;;12.09;70.65;101542.00;2001750;28;3618986;-77
2024/03/19 04:47:04;;;;;;;;;34.80;27.80;;;;;12.07;70.74;101542.94;2001471;28;3613765;-77
2024/03/19 04:48:16;;;;;;;;;37.80;31.80;;;;;12.01;70.47;101536.91;1999273;28;3618953;-77
2024/03/19 04:49:28;;;;;;;;;30.00;27.40;;;;;12.01;70.15;101536.91;2000569;28;3613725;-78
2024/03/19 04:50:40;;;;;;;;;35.80;29.40;;;;;12.01;70.66;101533.41;2000184;28;3598128;-78
2024/03/19 04:51:52;;;;;;;;;32.80;29.60;;;;;12.02;70.30;101540.44;2004210;28;3611669;-77
2024/03/19 04:53:04;;;;;;;;;30.60;28.00;;;;;12.01;70.47;101544.81;2007116;28;3613752;-77
2024/03/19 04:54:16;;;;;;;;;30.00;29.20;;;;;11.98;70.60;101541.41;2002671;28;3587716;-77
2024/03/19 04:55:28;;;;;;;;;38.67;27.67;;;;;11.95;70.47;101537.06;1994501;28;3623174;-77
2024/03/19 04:56:39;;;;;;;;;33.50;29.00;;;;;12.00;70.50;101547.50;1994679;28;2861712;-77
2024/03/19 04:57:51;;;;;;;;;30.80;26.60;;;;;11.98;70.71;101546.66;2003753;28;3608529;-77
2024/03/19 04:59:03;;;;;;;;;35.80;30.20;;;;;11.95;70.72;101538.88;2004867;28;3618429;-78
2024/03/19 05:00:18;;;;;;;;;30.40;29.00;;;;;11.96;70.23;101551.09;2004424;28;3600183;-77
2024/03/19 05:01:29;;;;;;;;;29.00;26.50;;;;;11.93;70.36;101554.69;1978543;28;2852290;-77
2024/03/19 05:02:41;;;;;;;;;30.40;28.80;;;;;11.92;70.69;101545.94;1997151;28;3608577;-77
2024/03/19 05:03:53;;;;;;;;;32.00;30.00;;;;;11.93;70.44;101550.28;2011002;28;3613738;-77
2024/03/19 05:05:04;;;;;;;;;29.00;25.50;;;;;11.85;70.60;101536.47;1987106;28;2858578;-77
2024/03/19 05:06:16;;;;;;;;;29.67;28.33;;;;;11.92;70.38;101552.97;1985080;28;3597468;-77
2024/03/19 05:07:27;;;;;;;;;32.50;27.00;;;;;11.89;70.74;101551.28;1990689;28;2870091;-77
2024/03/19 05:08:40;;;;;;;;;29.00;28.60;;;;;11.88;70.54;101557.44;1995534;28;3598176;-77
2024/03/19 05:09:50;;;;;;;;;33.00;30.00;;;;;11.91;70.40;101561.78;2009342;28;2864888;-78
2024/03/19 05:11:02;;;;;;;;;24.33;22.00;;;;;11.82;70.44;101550.59;2000987;28;3585688;-77
2024/03/19 05:12:14;;;;;;;;;28.40;25.80;;;;;11.89;70.47;101559.19;2016893;28;3582879;-77
2024/03/19 05:13:26;;;;;;;;;29.40;27.20;;;;;11.87;70.65;101562.75;2016799;28;3613156;-77
2024/03/19 05:14:38;;;;;;;;;33.00;29.40;;;;;11.80;70.55;101556.78;1999293;28;3612697;-77
2024/03/19 05:15:50;;;;;;;;;25.00;21.67;;;;;11.76;70.45;101547.22;1998767;28;3568017;-77
2024/03/19 05:17:03;;;;;;;;;25.40;25.20;;;;;11.78;70.12;101556.81;2027920;28;3587747;-77
2024/03/19 05:18:13;;;;;;;;;27.00;24.00;;;;;11.77;70.78;101552.47;1985929;28;2844031;-77
2024/03/19 05:19:25;;;;;;;;;29.67;23.00;;;;;11.79;70.48;101562.94;2002071;28;3592925;-77
2024/03/19 05:20:37;;;;;;;;;35.20;30.00;;;;;11.80;70.76;101554.16;2034146;28;3604369;-77